sensor_id;sensor_type;location;lat;lon;timestamp;P1;durP1;ratioP1;P2;durP2;ratioP2
10882;SDS011;5494;51.796;10.952;2023-10-19T00:02:49;28.90;;;21.13;;
10882;SDS011;5494;51.796;10.952;2023-10-19T00:05:20;27.97;;;20.97;;
10882;SDS011;5494;51.796;10.952;2023-10-19T00:07:53;25.83;;;21.13;;
10882;SDS011;5494;51.796;10.952;2023-10-19T00:10:23;30.93;;;21.80;;
10882;SDS011;5494;51.796;10.952;2023-10-19T00:12:55;28.00;;;21.23;;
10882;SDS011;5494;51.796;10.952;2023-10-19T00:15:26;30.23;;;22.70;;
10882;SDS011;5494;51.796;10.952;2023-10-19T00:17:58;32.03;;;23.73;;
10882;SDS011;5494;51.796;10.952;2023-10-19T00:20:32;31.73;;;23.30;;
10882;SDS011;5494;51.796;10.952;2023-10-19T00:23:18;29.53;;;22.93;;
10882;SDS011;5494;51.796;10.952;2023-10-19T00:25:59;32.27;;;24.37;;
10882;SDS011;5494;51.796;10.952;2023-10-19T00:28:36;30.27;;;22.93;;
10882;SDS011;5494;51.796;10.952;2023-10-19T00:31:05;33.87;;;24.83;;
10882;SDS011;5494;51.796;10.952;2023-10-19T00:33:35;33.40;;;24.93;;
10882;SDS011;5494;51.796;10.952;2023-10-19T00:36:06;33.97;;;23.73;;
10882;SDS011;5494;51.796;10.952;2023-10-19T00:38:37;34.33;;;24.77;;
10882;SDS011;5494;51.796;10.952;2023-10-19T00:41:09;35.57;;;25.43;;
10882;SDS011;5494;51.796;10.952;2023-10-19T00:43:46;36.17;;;26.90;;
10882;SDS011;5494;51.796;10.952;2023-10-19T00:46:17;34.03;;;26.83;;
10882;SDS011;5494;51.796;10.952;2023-10-19T00:48:58;37.40;;;26.77;;
10882;SDS011;5494;51.796;10.952;2023-10-19T00:51:33;37.57;;;27.83;;
10882;SDS011;5494;51.796;10.952;2023-10-19T00:54:19;37.63;;;28.57;;
10882;SDS011;5494;51.796;10.952;2023-10-19T00:56:58;37.47;;;27.23;;
10882;SDS011;5494;51.796;10.952;2023-10-19T00:59:34;38.90;;;27.97;;
10882;SDS011;5494;51.796;10.952;2023-10-19T01:02:09;37.20;;;27.47;;
10882;SDS011;5494;51.796;10.952;2023-10-19T01:04:48;39.20;;;28.43;;
10882;SDS011;5494;51.796;10.952;2023-10-19T01:07:22;36.67;;;28.33;;
10882;SDS011;5494;51.796;10.952;2023-10-19T01:09:56;39.50;;;28.60;;
10882;SDS011;5494;51.796;10.952;2023-10-19T01:12:27;38.43;;;28.50;;
10882;SDS011;5494;51.796;10.952;2023-10-19T01:15:06;39.30;;;27.17;;
10882;SDS011;5494;51.796;10.952;2023-10-19T01:17:43;43.37;;;28.67;;
10882;SDS011;5494;51.796;10.952;2023-10-19T01:20:14;40.03;;;28.03;;
10882;SDS011;5494;51.796;10.952;2023-10-19T01:22:55;39.50;;;28.47;;
10882;SDS011;5494;51.796;10.952;2023-10-19T01:25:43;40.30;;;28.57;;
10882;SDS011;5494;51.796;10.952;2023-10-19T01:28:17;40.53;;;28.87;;
10882;SDS011;5494;51.796;10.952;2023-10-19T01:30:45;43.70;;;28.83;;
10882;SDS011;5494;51.796;10.952;2023-10-19T01:33:18;44.53;;;29.17;;
10882;SDS011;5494;51.796;10.952;2023-10-19T01:35:47;39.23;;;27.37;;
10882;SDS011;5494;51.796;10.952;2023-10-19T01:38:34;42.33;;;29.93;;
10882;SDS011;5494;51.796;10.952;2023-10-19T01:41:03;42.87;;;29.90;;
10882;SDS011;5494;51.796;10.952;2023-10-19T01:43:37;43.60;;;30.17;;
10882;SDS011;5494;51.796;10.952;2023-10-19T01:46:07;43.10;;;30.50;;
10882;SDS011;5494;51.796;10.952;2023-10-19T01:48:49;43.57;;;30.70;;
10882;SDS011;5494;51.796;10.952;2023-10-19T01:51:22;46.03;;;31.13;;
10882;SDS011;5494;51.796;10.952;2023-10-19T01:53:52;45.07;;;31.17;;
10882;SDS011;5494;51.796;10.952;2023-10-19T01:56:22;46.47;;;32.23;;
10882;SDS011;5494;51.796;10.952;2023-10-19T01:58:51;48.50;;;32.30;;
10882;SDS011;5494;51.796;10.952;2023-10-19T02:01:21;48.10;;;35.33;;
10882;SDS011;5494;51.796;10.952;2023-10-19T02:03:57;49.33;;;33.53;;
10882;SDS011;5494;51.796;10.952;2023-10-19T02:06:30;52.17;;;35.03;;
10882;SDS011;5494;51.796;10.952;2023-10-19T02:09:04;54.13;;;35.73;;
10882;SDS011;5494;51.796;10.952;2023-10-19T02:11:44;50.33;;;34.50;;
10882;SDS011;5494;51.796;10.952;2023-10-19T02:14:14;46.80;;;33.53;;
10882;SDS011;5494;51.796;10.952;2023-10-19T02:16:45;46.90;;;34.13;;
10882;SDS011;5494;51.796;10.952;2023-10-19T02:19:18;50.57;;;34.73;;
10882;SDS011;5494;51.796;10.952;2023-10-19T02:21:48;56.03;;;35.70;;
10882;SDS011;5494;51.796;10.952;2023-10-19T02:24:20;52.27;;;36.83;;
10882;SDS011;5494;51.796;10.952;2023-10-19T02:26:48;52.87;;;35.33;;
10882;SDS011;5494;51.796;10.952;2023-10-19T02:29:18;55.23;;;36.73;;
10882;SDS011;5494;51.796;10.952;2023-10-19T02:31:45;52.03;;;35.97;;
10882;SDS011;5494;51.796;10.952;2023-10-19T02:34:15;53.80;;;37.67;;
10882;SDS011;5494;51.796;10.952;2023-10-19T02:36:45;54.03;;;37.30;;
10882;SDS011;5494;51.796;10.952;2023-10-19T02:39:15;53.47;;;35.23;;
10882;SDS011;5494;51.796;10.952;2023-10-19T02:41:45;51.47;;;36.63;;
10882;SDS011;5494;51.796;10.952;2023-10-19T02:44:18;53.40;;;36.77;;
10882;SDS011;5494;51.796;10.952;2023-10-19T02:46:49;54.43;;;36.87;;
10882;SDS011;5494;51.796;10.952;2023-10-19T02:49:21;55.00;;;38.53;;
10882;SDS011;5494;51.796;10.952;2023-10-19T02:51:49;54.37;;;37.40;;
10882;SDS011;5494;51.796;10.952;2023-10-19T02:54:21;54.70;;;37.30;;
10882;SDS011;5494;51.796;10.952;2023-10-19T02:56:52;53.70;;;37.87;;
10882;SDS011;5494;51.796;10.952;2023-10-19T02:59:26;54.73;;;37.27;;
10882;SDS011;5494;51.796;10.952;2023-10-19T03:01:56;56.43;;;38.73;;
10882;SDS011;5494;51.796;10.952;2023-10-19T03:04:33;56.90;;;38.77;;
10882;SDS011;5494;51.796;10.952;2023-10-19T03:07:02;54.47;;;38.27;;
10882;SDS011;5494;51.796;10.952;2023-10-19T03:09:30;63.50;;;39.23;;
10882;SDS011;5494;51.796;10.952;2023-10-19T03:12:04;50.63;;;35.70;;
10882;SDS011;5494;51.796;10.952;2023-10-19T03:14:37;53.00;;;36.87;;
10882;SDS011;5494;51.796;10.952;2023-10-19T03:17:04;58.03;;;40.43;;
10882;SDS011;5494;51.796;10.952;2023-10-19T03:19:36;52.53;;;37.07;;
10882;SDS011;5494;51.796;10.952;2023-10-19T03:22:03;53.63;;;36.20;;
10882;SDS011;5494;51.796;10.952;2023-10-19T03:24:32;54.70;;;37.47;;
10882;SDS011;5494;51.796;10.952;2023-10-19T03:27:05;53.37;;;36.30;;
10882;SDS011;5494;51.796;10.952;2023-10-19T03:29:39;53.93;;;35.53;;
10882;SDS011;5494;51.796;10.952;2023-10-19T03:32:12;54.93;;;38.63;;
10882;SDS011;5494;51.796;10.952;2023-10-19T03:34:40;62.67;;;39.77;;
10882;SDS011;5494;51.796;10.952;2023-10-19T03:37:14;58.90;;;40.20;;
10882;SDS011;5494;51.796;10.952;2023-10-19T03:39:45;57.33;;;38.73;;
10882;SDS011;5494;51.796;10.952;2023-10-19T03:42:16;58.27;;;39.17;;
10882;SDS011;5494;51.796;10.952;2023-10-19T03:44:47;57.47;;;38.03;;
10882;SDS011;5494;51.796;10.952;2023-10-19T03:47:20;58.37;;;39.63;;
10882;SDS011;5494;51.796;10.952;2023-10-19T03:49:53;55.63;;;37.23;;
10882;SDS011;5494;51.796;10.952;2023-10-19T03:52:23;64.40;;;39.87;;
10882;SDS011;5494;51.796;10.952;2023-10-19T03:54:56;57.90;;;38.33;;
10882;SDS011;5494;51.796;10.952;2023-10-19T03:57:26;62.53;;;39.93;;
10882;SDS011;5494;51.796;10.952;2023-10-19T03:59:56;56.83;;;38.40;;
10882;SDS011;5494;51.796;10.952;2023-10-19T04:02:24;59.47;;;37.90;;
10882;SDS011;5494;51.796;10.952;2023-10-19T04:04:56;55.40;;;35.37;;
10882;SDS011;5494;51.796;10.952;2023-10-19T04:07:24;55.07;;;36.90;;
10882;SDS011;5494;51.796;10.952;2023-10-19T04:09:53;55.90;;;36.33;;
10882;SDS011;5494;51.796;10.952;2023-10-19T04:12:38;53.17;;;35.60;;
10882;SDS011;5494;51.796;10.952;2023-10-19T04:15:09;56.43;;;36.40;;
10882;SDS011;5494;51.796;10.952;2023-10-19T04:17:42;50.47;;;32.67;;
10882;SDS011;5494;51.796;10.952;2023-10-19T04:20:12;54.70;;;35.10;;
10882;SDS011;5494;51.796;10.952;2023-10-19T04:22:55;50.40;;;32.20;;
10882;SDS011;5494;51.796;10.952;2023-10-19T04:25:31;47.63;;;31.77;;
10882;SDS011;5494;51.796;10.952;2023-10-19T04:28:01;46.30;;;31.37;;
10882;SDS011;5494;51.796;10.952;2023-10-19T04:30:31;47.73;;;30.37;;
10882;SDS011;5494;51.796;10.952;2023-10-19T04:33:03;44.93;;;30.57;;
10882;SDS011;5494;51.796;10.952;2023-10-19T04:35:35;42.97;;;30.07;;
10882;SDS011;5494;51.796;10.952;2023-10-19T04:38:04;45.57;;;30.40;;
10882;SDS011;5494;51.796;10.952;2023-10-19T04:40:33;46.43;;;28.90;;
10882;SDS011;5494;51.796;10.952;2023-10-19T04:43:04;44.93;;;30.40;;
10882;SDS011;5494;51.796;10.952;2023-10-19T04:45:32;50.80;;;31.50;;
10882;SDS011;5494;51.796;10.952;2023-10-19T04:48:00;55.10;;;32.20;;
10882;SDS011;5494;51.796;10.952;2023-10-19T04:50:30;56.77;;;33.50;;
10882;SDS011;5494;51.796;10.952;2023-10-19T04:52:59;120.67;;;38.33;;
10882;SDS011;5494;51.796;10.952;2023-10-19T04:55:27;102.63;;;39.87;;
10882;SDS011;5494;51.796;10.952;2023-10-19T04:57:57;161.13;;;43.10;;
10882;SDS011;5494;51.796;10.952;2023-10-19T05:00:27;228.50;;;46.13;;
10882;SDS011;5494;51.796;10.952;2023-10-19T05:02:55;238.40;;;49.33;;
10882;SDS011;5494;51.796;10.952;2023-10-19T05:05:24;82.60;;;37.93;;
10882;SDS011;5494;51.796;10.952;2023-10-19T05:07:52;102.13;;;39.30;;
10882;SDS011;5494;51.796;10.952;2023-10-19T05:10:20;198.40;;;42.73;;
10882;SDS011;5494;51.796;10.952;2023-10-19T05:12:48;141.20;;;42.03;;
10882;SDS011;5494;51.796;10.952;2023-10-19T05:15:16;105.47;;;39.63;;
10882;SDS011;5494;51.796;10.952;2023-10-19T05:17:46;103.70;;;37.53;;
10882;SDS011;5494;51.796;10.952;2023-10-19T05:20:14;110.07;;;35.97;;
10882;SDS011;5494;51.796;10.952;2023-10-19T05:22:42;87.23;;;36.50;;
10882;SDS011;5494;51.796;10.952;2023-10-19T05:25:11;63.00;;;35.97;;
10882;SDS011;5494;51.796;10.952;2023-10-19T05:27:39;73.77;;;36.47;;
10882;SDS011;5494;51.796;10.952;2023-10-19T05:30:09;58.87;;;35.03;;
10882;SDS011;5494;51.796;10.952;2023-10-19T05:32:38;70.37;;;35.27;;
10882;SDS011;5494;51.796;10.952;2023-10-19T05:35:08;65.83;;;35.47;;
10882;SDS011;5494;51.796;10.952;2023-10-19T05:37:39;83.20;;;33.90;;
10882;SDS011;5494;51.796;10.952;2023-10-19T05:40:08;56.27;;;33.50;;
10882;SDS011;5494;51.796;10.952;2023-10-19T05:42:41;70.60;;;33.03;;
10882;SDS011;5494;51.796;10.952;2023-10-19T05:45:09;58.47;;;31.93;;
10882;SDS011;5494;51.796;10.952;2023-10-19T05:47:39;53.47;;;33.43;;
10882;SDS011;5494;51.796;10.952;2023-10-19T05:50:09;68.10;;;32.13;;
10882;SDS011;5494;51.796;10.952;2023-10-19T05:52:40;58.00;;;30.57;;
10882;SDS011;5494;51.796;10.952;2023-10-19T05:55:09;51.17;;;29.43;;
10882;SDS011;5494;51.796;10.952;2023-10-19T05:57:38;47.93;;;29.40;;
10882;SDS011;5494;51.796;10.952;2023-10-19T06:00:08;48.67;;;28.73;;
10882;SDS011;5494;51.796;10.952;2023-10-19T06:02:42;52.43;;;30.17;;
10882;SDS011;5494;51.796;10.952;2023-10-19T06:05:14;48.40;;;28.90;;
10882;SDS011;5494;51.796;10.952;2023-10-19T06:07:44;54.00;;;27.87;;
10882;SDS011;5494;51.796;10.952;2023-10-19T06:10:13;46.80;;;28.67;;
10882;SDS011;5494;51.796;10.952;2023-10-19T06:12:47;56.47;;;29.20;;
10882;SDS011;5494;51.796;10.952;2023-10-19T06:15:17;46.53;;;27.83;;
10882;SDS011;5494;51.796;10.952;2023-10-19T06:17:50;57.40;;;28.03;;
10882;SDS011;5494;51.796;10.952;2023-10-19T06:20:20;54.90;;;28.37;;
10882;SDS011;5494;51.796;10.952;2023-10-19T06:22:53;73.40;;;28.90;;
10882;SDS011;5494;51.796;10.952;2023-10-19T06:25:27;50.93;;;27.93;;
10882;SDS011;5494;51.796;10.952;2023-10-19T06:27:55;73.73;;;28.43;;
10882;SDS011;5494;51.796;10.952;2023-10-19T06:30:25;48.97;;;26.67;;
10882;SDS011;5494;51.796;10.952;2023-10-19T06:32:54;55.67;;;26.97;;
10882;SDS011;5494;51.796;10.952;2023-10-19T06:35:29;39.63;;;25.10;;
10882;SDS011;5494;51.796;10.952;2023-10-19T06:37:59;46.97;;;25.40;;
10882;SDS011;5494;51.796;10.952;2023-10-19T06:40:30;44.83;;;26.60;;
10882;SDS011;5494;51.796;10.952;2023-10-19T06:43:01;43.23;;;25.27;;
10882;SDS011;5494;51.796;10.952;2023-10-19T06:45:29;44.03;;;27.00;;
10882;SDS011;5494;51.796;10.952;2023-10-19T06:47:57;37.73;;;24.03;;
10882;SDS011;5494;51.796;10.952;2023-10-19T06:50:26;53.57;;;25.50;;
10882;SDS011;5494;51.796;10.952;2023-10-19T06:52:58;44.37;;;25.33;;
10882;SDS011;5494;51.796;10.952;2023-10-19T06:55:26;55.33;;;27.27;;
10882;SDS011;5494;51.796;10.952;2023-10-19T06:57:54;43.37;;;24.90;;
10882;SDS011;5494;51.796;10.952;2023-10-19T07:00:23;66.07;;;25.17;;
10882;SDS011;5494;51.796;10.952;2023-10-19T07:02:54;53.83;;;23.70;;
10882;SDS011;5494;51.796;10.952;2023-10-19T07:05:26;39.87;;;23.37;;
10882;SDS011;5494;51.796;10.952;2023-10-19T07:07:57;49.03;;;23.90;;
10882;SDS011;5494;51.796;10.952;2023-10-19T07:10:28;99.60;;;25.73;;
10882;SDS011;5494;51.796;10.952;2023-10-19T07:12:56;131.87;;;28.60;;
10882;SDS011;5494;51.796;10.952;2023-10-19T07:15:25;241.83;;;38.50;;
10882;SDS011;5494;51.796;10.952;2023-10-19T07:17:56;287.07;;;36.80;;
10882;SDS011;5494;51.796;10.952;2023-10-19T07:20:25;323.40;;;41.97;;
10882;SDS011;5494;51.796;10.952;2023-10-19T07:22:56;198.30;;;31.87;;
10882;SDS011;5494;51.796;10.952;2023-10-19T07:25:30;65.60;;;24.97;;
10882;SDS011;5494;51.796;10.952;2023-10-19T07:27:58;122.70;;;28.90;;
10882;SDS011;5494;51.796;10.952;2023-10-19T07:30:26;94.00;;;26.80;;
10882;SDS011;5494;51.796;10.952;2023-10-19T07:32:57;76.47;;;25.10;;
10882;SDS011;5494;51.796;10.952;2023-10-19T07:35:26;47.63;;;22.93;;
10882;SDS011;5494;51.796;10.952;2023-10-19T07:38:01;94.43;;;23.53;;
10882;SDS011;5494;51.796;10.952;2023-10-19T07:40:30;32.73;;;20.43;;
10882;SDS011;5494;51.796;10.952;2023-10-19T07:42:58;33.50;;;20.80;;
10882;SDS011;5494;51.796;10.952;2023-10-19T07:45:27;29.93;;;19.80;;
10882;SDS011;5494;51.796;10.952;2023-10-19T07:47:57;27.83;;;18.27;;
10882;SDS011;5494;51.796;10.952;2023-10-19T07:50:33;37.70;;;20.60;;
10882;SDS011;5494;51.796;10.952;2023-10-19T07:53:04;30.37;;;19.83;;
10882;SDS011;5494;51.796;10.952;2023-10-19T07:55:32;31.57;;;19.57;;
10882;SDS011;5494;51.796;10.952;2023-10-19T07:58:00;28.47;;;19.03;;
10882;SDS011;5494;51.796;10.952;2023-10-19T08:00:30;28.67;;;18.53;;
10882;SDS011;5494;51.796;10.952;2023-10-19T08:03:00;26.60;;;18.47;;
10882;SDS011;5494;51.796;10.952;2023-10-19T08:05:29;23.80;;;16.77;;
10882;SDS011;5494;51.796;10.952;2023-10-19T08:07:58;27.03;;;18.10;;
10882;SDS011;5494;51.796;10.952;2023-10-19T08:10:28;26.70;;;17.57;;
10882;SDS011;5494;51.796;10.952;2023-10-19T08:12:56;26.27;;;18.83;;
10882;SDS011;5494;51.796;10.952;2023-10-19T08:15:25;24.70;;;16.77;;
10882;SDS011;5494;51.796;10.952;2023-10-19T08:17:56;28.80;;;19.87;;
10882;SDS011;5494;51.796;10.952;2023-10-19T08:20:25;26.63;;;18.57;;
10882;SDS011;5494;51.796;10.952;2023-10-19T08:22:58;26.40;;;18.87;;
10882;SDS011;5494;51.796;10.952;2023-10-19T08:25:30;30.17;;;20.43;;
10882;SDS011;5494;51.796;10.952;2023-10-19T08:28:19;31.13;;;19.90;;
10882;SDS011;5494;51.796;10.952;2023-10-19T08:30:48;32.23;;;21.03;;
10882;SDS011;5494;51.796;10.952;2023-10-19T08:33:24;36.30;;;22.10;;
10882;SDS011;5494;51.796;10.952;2023-10-19T08:35:53;34.07;;;21.40;;
10882;SDS011;5494;51.796;10.952;2023-10-19T08:38:23;34.13;;;22.97;;
10882;SDS011;5494;51.796;10.952;2023-10-19T08:40:53;38.20;;;24.30;;
10882;SDS011;5494;51.796;10.952;2023-10-19T08:43:21;33.40;;;22.83;;
10882;SDS011;5494;51.796;10.952;2023-10-19T08:45:50;34.10;;;23.63;;
10882;SDS011;5494;51.796;10.952;2023-10-19T08:48:20;38.57;;;24.03;;
10882;SDS011;5494;51.796;10.952;2023-10-19T08:50:49;37.23;;;23.13;;
10882;SDS011;5494;51.796;10.952;2023-10-19T08:53:22;37.10;;;21.90;;
10882;SDS011;5494;51.796;10.952;2023-10-19T08:55:53;34.80;;;22.73;;
10882;SDS011;5494;51.796;10.952;2023-10-19T08:58:23;35.67;;;22.23;;
10882;SDS011;5494;51.796;10.952;2023-10-19T09:00:54;36.30;;;23.37;;
10882;SDS011;5494;51.796;10.952;2023-10-19T09:03:23;37.53;;;21.77;;
10882;SDS011;5494;51.796;10.952;2023-10-19T09:05:53;36.20;;;22.50;;
10882;SDS011;5494;51.796;10.952;2023-10-19T09:08:23;34.80;;;22.17;;
10882;SDS011;5494;51.796;10.952;2023-10-19T09:10:52;34.27;;;20.83;;
10882;SDS011;5494;51.796;10.952;2023-10-19T09:13:23;37.97;;;21.87;;
10882;SDS011;5494;51.796;10.952;2023-10-19T09:15:51;33.93;;;21.43;;
10882;SDS011;5494;51.796;10.952;2023-10-19T09:18:23;33.10;;;21.33;;
10882;SDS011;5494;51.796;10.952;2023-10-19T09:20:54;35.37;;;22.70;;
10882;SDS011;5494;51.796;10.952;2023-10-19T09:23:29;32.30;;;20.90;;
10882;SDS011;5494;51.796;10.952;2023-10-19T09:26:00;34.73;;;21.63;;
10882;SDS011;5494;51.796;10.952;2023-10-19T09:28:30;35.20;;;21.27;;
10882;SDS011;5494;51.796;10.952;2023-10-19T09:31:02;34.23;;;21.50;;
10882;SDS011;5494;51.796;10.952;2023-10-19T09:33:32;34.13;;;20.67;;
10882;SDS011;5494;51.796;10.952;2023-10-19T09:36:02;33.53;;;21.97;;
10882;SDS011;5494;51.796;10.952;2023-10-19T09:38:39;38.00;;;23.27;;
10882;SDS011;5494;51.796;10.952;2023-10-19T09:41:12;36.40;;;21.53;;
10882;SDS011;5494;51.796;10.952;2023-10-19T09:43:44;34.67;;;22.73;;
10882;SDS011;5494;51.796;10.952;2023-10-19T09:46:20;35.60;;;22.43;;
10882;SDS011;5494;51.796;10.952;2023-10-19T09:48:50;34.43;;;21.97;;
10882;SDS011;5494;51.796;10.952;2023-10-19T09:51:19;37.17;;;22.57;;
10882;SDS011;5494;51.796;10.952;2023-10-19T09:53:50;37.63;;;23.77;;
10882;SDS011;5494;51.796;10.952;2023-10-19T09:56:30;31.20;;;20.93;;
10882;SDS011;5494;51.796;10.952;2023-10-19T09:59:05;34.47;;;21.10;;
10882;SDS011;5494;51.796;10.952;2023-10-19T10:04:35;31.47;;;20.03;;
10882;SDS011;5494;51.796;10.952;2023-10-19T10:07:04;28.67;;;19.47;;
10882;SDS011;5494;51.796;10.952;2023-10-19T10:09:37;31.93;;;21.07;;
10882;SDS011;5494;51.796;10.952;2023-10-19T10:12:16;29.87;;;21.00;;
10882;SDS011;5494;51.796;10.952;2023-10-19T10:14:59;27.50;;;19.27;;
10882;SDS011;5494;51.796;10.952;2023-10-19T10:17:34;30.60;;;20.40;;
10882;SDS011;5494;51.796;10.952;2023-10-19T10:23:16;30.47;;;21.10;;
10882;SDS011;5494;51.796;10.952;2023-10-19T10:25:51;28.53;;;18.73;;
10882;SDS011;5494;51.796;10.952;2023-10-19T10:28:21;27.97;;;20.17;;
10882;SDS011;5494;51.796;10.952;2023-10-19T10:31:07;27.37;;;19.50;;
10882;SDS011;5494;51.796;10.952;2023-10-19T10:33:37;28.13;;;19.73;;
10882;SDS011;5494;51.796;10.952;2023-10-19T10:36:06;29.13;;;19.23;;
10882;SDS011;5494;51.796;10.952;2023-10-19T10:38:36;24.40;;;18.37;;
10882;SDS011;5494;51.796;10.952;2023-10-19T10:41:04;26.17;;;19.53;;
10882;SDS011;5494;51.796;10.952;2023-10-19T10:43:50;27.03;;;19.33;;
10882;SDS011;5494;51.796;10.952;2023-10-19T10:46:20;26.13;;;18.90;;
10882;SDS011;5494;51.796;10.952;2023-10-19T10:48:50;29.20;;;19.00;;
10882;SDS011;5494;51.796;10.952;2023-10-19T10:51:19;23.87;;;17.83;;
10882;SDS011;5494;51.796;10.952;2023-10-19T10:53:49;24.80;;;18.43;;
10882;SDS011;5494;51.796;10.952;2023-10-19T10:56:20;27.17;;;18.50;;
10882;SDS011;5494;51.796;10.952;2023-10-19T10:58:51;27.97;;;19.90;;
10882;SDS011;5494;51.796;10.952;2023-10-19T11:01:28;27.70;;;20.00;;
10882;SDS011;5494;51.796;10.952;2023-10-19T11:04:06;31.00;;;20.37;;
10882;SDS011;5494;51.796;10.952;2023-10-19T11:06:47;34.63;;;21.63;;
10882;SDS011;5494;51.796;10.952;2023-10-19T11:09:17;35.77;;;22.87;;
10882;SDS011;5494;51.796;10.952;2023-10-19T11:11:46;33.27;;;22.00;;
10882;SDS011;5494;51.796;10.952;2023-10-19T11:14:16;36.10;;;23.40;;
10882;SDS011;5494;51.796;10.952;2023-10-19T11:16:45;29.83;;;21.10;;
10882;SDS011;5494;51.796;10.952;2023-10-19T11:19:13;34.03;;;21.90;;
10882;SDS011;5494;51.796;10.952;2023-10-19T11:21:53;36.07;;;22.97;;
10882;SDS011;5494;51.796;10.952;2023-10-19T11:24:25;30.27;;;20.67;;
10882;SDS011;5494;51.796;10.952;2023-10-19T11:26:56;34.87;;;23.30;;
10882;SDS011;5494;51.796;10.952;2023-10-19T11:29:26;34.00;;;23.10;;
10882;SDS011;5494;51.796;10.952;2023-10-19T11:31:57;36.00;;;24.47;;
10882;SDS011;5494;51.796;10.952;2023-10-19T11:34:27;34.40;;;23.33;;
10882;SDS011;5494;51.796;10.952;2023-10-19T11:36:57;33.73;;;23.83;;
10882;SDS011;5494;51.796;10.952;2023-10-19T11:39:27;39.83;;;24.37;;
10882;SDS011;5494;51.796;10.952;2023-10-19T11:41:55;34.70;;;24.63;;
10882;SDS011;5494;51.796;10.952;2023-10-19T11:44:23;39.80;;;24.70;;
10882;SDS011;5494;51.796;10.952;2023-10-19T11:46:53;36.43;;;25.10;;
10882;SDS011;5494;51.796;10.952;2023-10-19T11:49:21;38.23;;;25.23;;
10882;SDS011;5494;51.796;10.952;2023-10-19T11:51:52;39.43;;;24.80;;
10882;SDS011;5494;51.796;10.952;2023-10-19T11:54:20;38.10;;;24.50;;
10882;SDS011;5494;51.796;10.952;2023-10-19T11:56:49;40.37;;;25.27;;
10882;SDS011;5494;51.796;10.952;2023-10-19T11:59:19;39.43;;;25.27;;
10882;SDS011;5494;51.796;10.952;2023-10-19T12:01:49;43.27;;;26.20;;
10882;SDS011;5494;51.796;10.952;2023-10-19T12:04:17;44.97;;;27.40;;
10882;SDS011;5494;51.796;10.952;2023-10-19T12:06:45;44.33;;;27.00;;
10882;SDS011;5494;51.796;10.952;2023-10-19T12:09:13;42.83;;;26.90;;
10882;SDS011;5494;51.796;10.952;2023-10-19T12:11:42;40.23;;;26.37;;
10882;SDS011;5494;51.796;10.952;2023-10-19T12:14:13;38.70;;;25.57;;
10882;SDS011;5494;51.796;10.952;2023-10-19T12:16:42;39.03;;;26.87;;
10882;SDS011;5494;51.796;10.952;2023-10-19T12:19:13;39.90;;;25.90;;
10882;SDS011;5494;51.796;10.952;2023-10-19T12:21:45;45.57;;;27.87;;
10882;SDS011;5494;51.796;10.952;2023-10-19T12:24:16;42.80;;;28.27;;
10882;SDS011;5494;51.796;10.952;2023-10-19T12:26:44;47.97;;;29.47;;
10882;SDS011;5494;51.796;10.952;2023-10-19T12:29:12;41.07;;;27.50;;
10882;SDS011;5494;51.796;10.952;2023-10-19T12:31:43;43.30;;;27.13;;
10882;SDS011;5494;51.796;10.952;2023-10-19T12:34:14;42.73;;;28.17;;
10882;SDS011;5494;51.796;10.952;2023-10-19T12:36:43;44.00;;;28.40;;
10882;SDS011;5494;51.796;10.952;2023-10-19T12:39:12;46.87;;;28.03;;
10882;SDS011;5494;51.796;10.952;2023-10-19T12:42:01;43.07;;;28.77;;
10882;SDS011;5494;51.796;10.952;2023-10-19T12:44:30;46.87;;;29.70;;
10882;SDS011;5494;51.796;10.952;2023-10-19T12:47:06;45.47;;;30.10;;
10882;SDS011;5494;51.796;10.952;2023-10-19T12:49:40;45.53;;;29.50;;
10882;SDS011;5494;51.796;10.952;2023-10-19T12:52:11;48.47;;;29.77;;
10882;SDS011;5494;51.796;10.952;2023-10-19T12:54:39;51.60;;;31.00;;
10882;SDS011;5494;51.796;10.952;2023-10-19T12:57:10;48.67;;;31.53;;
10882;SDS011;5494;51.796;10.952;2023-10-19T12:59:38;51.83;;;32.20;;
10882;SDS011;5494;51.796;10.952;2023-10-19T13:02:10;51.23;;;32.83;;
10882;SDS011;5494;51.796;10.952;2023-10-19T13:04:42;53.83;;;33.57;;
10882;SDS011;5494;51.796;10.952;2023-10-19T13:07:13;56.90;;;32.73;;
10882;SDS011;5494;51.796;10.952;2023-10-19T13:09:41;54.20;;;31.77;;
10882;SDS011;5494;51.796;10.952;2023-10-19T13:12:10;57.97;;;33.60;;
10882;SDS011;5494;51.796;10.952;2023-10-19T13:14:39;59.00;;;33.23;;
10882;SDS011;5494;51.796;10.952;2023-10-19T13:17:10;57.20;;;33.90;;
10882;SDS011;5494;51.796;10.952;2023-10-19T13:19:38;59.57;;;33.43;;
10882;SDS011;5494;51.796;10.952;2023-10-19T13:22:08;56.93;;;34.17;;
10882;SDS011;5494;51.796;10.952;2023-10-19T13:24:38;57.50;;;34.33;;
10882;SDS011;5494;51.796;10.952;2023-10-19T13:27:08;55.60;;;34.13;;
10882;SDS011;5494;51.796;10.952;2023-10-19T13:29:36;49.90;;;31.17;;
10882;SDS011;5494;51.796;10.952;2023-10-19T13:32:08;56.60;;;33.00;;
10882;SDS011;5494;51.796;10.952;2023-10-19T13:34:37;54.77;;;33.63;;
10882;SDS011;5494;51.796;10.952;2023-10-19T13:37:08;60.50;;;34.47;;
10882;SDS011;5494;51.796;10.952;2023-10-19T13:39:37;55.90;;;33.70;;
10882;SDS011;5494;51.796;10.952;2023-10-19T13:42:06;55.80;;;34.83;;
10882;SDS011;5494;51.796;10.952;2023-10-19T13:44:35;57.77;;;34.77;;
10882;SDS011;5494;51.796;10.952;2023-10-19T13:47:03;64.77;;;36.63;;
10882;SDS011;5494;51.796;10.952;2023-10-19T13:49:32;64.73;;;36.47;;
10882;SDS011;5494;51.796;10.952;2023-10-19T13:52:00;67.03;;;35.87;;
10882;SDS011;5494;51.796;10.952;2023-10-19T13:54:32;63.57;;;36.13;;
10882;SDS011;5494;51.796;10.952;2023-10-19T13:57:00;61.27;;;35.33;;
10882;SDS011;5494;51.796;10.952;2023-10-19T13:59:28;59.60;;;35.17;;
10882;SDS011;5494;51.796;10.952;2023-10-19T14:01:56;60.20;;;35.60;;
10882;SDS011;5494;51.796;10.952;2023-10-19T14:04:26;61.47;;;35.43;;
10882;SDS011;5494;51.796;10.952;2023-10-19T14:06:54;60.87;;;36.20;;
10882;SDS011;5494;51.796;10.952;2023-10-19T14:09:23;67.07;;;36.50;;
10882;SDS011;5494;51.796;10.952;2023-10-19T14:11:54;70.60;;;38.90;;
10882;SDS011;5494;51.796;10.952;2023-10-19T14:14:22;64.97;;;35.83;;
10882;SDS011;5494;51.796;10.952;2023-10-19T14:16:50;72.53;;;39.00;;
10882;SDS011;5494;51.796;10.952;2023-10-19T14:19:19;75.77;;;40.57;;
10882;SDS011;5494;51.796;10.952;2023-10-19T14:21:47;80.10;;;40.53;;
10882;SDS011;5494;51.796;10.952;2023-10-19T14:24:16;81.70;;;42.97;;
10882;SDS011;5494;51.796;10.952;2023-10-19T14:26:46;82.70;;;41.83;;
10882;SDS011;5494;51.796;10.952;2023-10-19T14:29:15;94.30;;;44.10;;
10882;SDS011;5494;51.796;10.952;2023-10-19T14:31:43;73.97;;;42.10;;
10882;SDS011;5494;51.796;10.952;2023-10-19T14:34:11;91.13;;;41.37;;
10882;SDS011;5494;51.796;10.952;2023-10-19T14:36:40;86.00;;;43.17;;
10882;SDS011;5494;51.796;10.952;2023-10-19T14:39:08;87.57;;;44.40;;
10882;SDS011;5494;51.796;10.952;2023-10-19T14:41:36;85.90;;;42.57;;
10882;SDS011;5494;51.796;10.952;2023-10-19T14:44:04;89.27;;;42.30;;
10882;SDS011;5494;51.796;10.952;2023-10-19T14:46:34;94.00;;;47.30;;
10882;SDS011;5494;51.796;10.952;2023-10-19T14:49:02;82.07;;;43.87;;
10882;SDS011;5494;51.796;10.952;2023-10-19T14:51:31;79.77;;;43.77;;